createdAt,value
2018-04-15T00:00:34.398Z,0.00
2018-04-15T00:01:34.397Z,0.00
2018-04-15T00:02:34.414Z,0.00
2018-04-15T00:03:34.390Z,0.00
2018-04-15T00:04:34.390Z,0.00
2018-04-15T00:05:34.380Z,0.00
2018-04-15T00:06:34.369Z,0.00
2018-04-15T00:07:34.364Z,0.00
2018-04-15T00:08:34.363Z,0.00
2018-04-15T00:09:34.355Z,0.00
2018-04-15T00:10:34.372Z,0.00
2018-04-15T00:11:34.341Z,0.00
2018-04-15T00:12:34.342Z,0.00
2018-04-15T00:13:34.352Z,0.00
2018-04-15T00:14:34.336Z,0.00
2018-04-15T00:15:34.328Z,0.00
2018-04-15T00:16:34.339Z,0.00
2018-04-15T00:17:34.320Z,0.00
2018-04-15T00:18:34.320Z,0.00
2018-04-15T00:19:34.312Z,0.00
2018-04-15T00:20:34.301Z,0.00
2018-04-15T00:21:34.296Z,0.00
2018-04-15T00:22:34.301Z,0.00
2018-04-15T00:23:34.284Z,0.00
2018-04-15T00:24:34.285Z,0.00
2018-04-15T00:25:34.286Z,0.00
2018-04-15T00:26:34.274Z,0.00
2018-04-15T00:27:34.261Z,0.00
2018-04-15T00:28:34.280Z,0.00
2018-04-15T00:29:34.264Z,0.00
2018-04-15T00:30:34.259Z,0.00
2018-04-15T00:31:34.250Z,0.00
2018-04-15T00:32:34.253Z,0.00
2018-04-15T00:33:34.236Z,0.00
2018-04-15T00:34:34.238Z,0.00
2018-04-15T00:35:34.229Z,0.00
2018-04-15T00:36:34.235Z,0.00
2018-04-15T00:37:34.218Z,0.00
2018-04-15T00:38:34.216Z,0.00
2018-04-15T00:39:34.210Z,0.00
2018-04-15T00:40:34.212Z,0.00
2018-04-15T00:41:34.228Z,0.00
2018-04-15T00:42:34.200Z,0.00
2018-04-15T00:43:34.193Z,0.00
2018-04-15T00:44:34.191Z,0.00
2018-04-15T00:45:34.180Z,0.00
2018-04-15T00:46:34.185Z,0.00
2018-04-15T00:47:34.171Z,0.00
2018-04-15T00:48:34.168Z,0.00
2018-04-15T00:49:34.158Z,0.00
2018-04-15T00:50:34.153Z,0.00
2018-04-15T00:51:34.148Z,0.00
2018-04-15T00:52:34.136Z,0.00
2018-04-15T00:53:34.146Z,0.00
2018-04-15T00:54:34.141Z,0.00
2018-04-15T00:55:34.121Z,0.00
2018-04-15T00:56:34.116Z,0.00
2018-04-15T00:57:34.106Z,0.00
2018-04-15T00:58:34.113Z,0.00
2018-04-15T00:59:34.108Z,0.00
2018-04-15T01:00:34.094Z,0.00
2018-04-15T01:01:34.108Z,0.00
2018-04-15T01:02:34.088Z,0.00
2018-04-15T01:03:34.088Z,0.00
2018-04-15T01:04:34.077Z,0.00
2018-04-15T01:05:34.078Z,0.00
2018-04-15T01:06:34.068Z,0.00
2018-04-15T01:07:34.058Z,0.00
2018-04-15T01:08:34.058Z,0.00
2018-04-15T01:09:34.060Z,0.00
2018-04-15T01:10:34.060Z,0.00
2018-04-15T01:11:34.034Z,0.00
2018-04-15T01:12:34.034Z,0.00
2018-04-15T01:13:34.026Z,0.00
2018-04-15T01:14:34.033Z,0.00
2018-04-15T01:15:34.010Z,0.00
2018-04-15T01:16:34.011Z,0.00
2018-04-15T01:17:34.004Z,0.00
2018-04-15T01:18:34.000Z,0.00
2018-04-15T01:19:33.989Z,0.00
2018-04-15T01:20:33.986Z,0.00
2018-04-15T01:21:33.990Z,0.00
2018-04-15T01:22:33.986Z,0.00
2018-04-15T01:23:33.968Z,0.00
2018-04-15T01:24:33.961Z,0.00
2018-04-15T01:25:33.953Z,0.00
2018-04-15T01:26:33.957Z,0.00
2018-04-15T01:27:33.943Z,0.00
2018-04-15T01:28:33.937Z,0.00
2018-04-15T01:29:33.940Z,0.00
2018-04-15T02:02:25.701Z,0.00
2018-04-15T02:03:25.673Z,0.00
2018-04-15T02:05:18.560Z,0.00
2018-04-15T02:06:18.533Z,0.00
2018-04-15T02:08:11.479Z,0.00
2018-04-15T02:09:11.449Z,0.00
2018-04-15T02:11:04.365Z,0.00
2018-04-15T02:12:04.330Z,0.00
2018-04-15T02:13:57.291Z,0.00
2018-04-15T02:14:57.264Z,0.00
2018-04-15T02:16:50.173Z,0.00
2018-04-15T02:17:50.148Z,0.00
2018-04-15T02:19:43.031Z,0.00
2018-04-15T02:20:43.022Z,0.00
2018-04-15T02:22:35.945Z,0.00
2018-04-15T02:23:35.911Z,0.00
2018-04-15T02:25:28.843Z,0.00
2018-04-15T02:26:28.804Z,0.00
2018-04-15T02:28:21.755Z,0.00
2018-04-15T02:29:21.734Z,0.00
2018-04-15T02:31:14.649Z,0.00
2018-04-15T02:32:14.604Z,0.00
2018-04-15T02:34:07.560Z,0.00
2018-04-15T02:35:07.523Z,0.00
2018-04-15T02:37:00.463Z,0.00
2018-04-15T02:38:00.410Z,0.00
2018-04-15T02:39:53.360Z,0.00
2018-04-15T02:40:53.370Z,0.00
2018-04-15T02:42:46.249Z,0.00
2018-04-15T02:43:46.235Z,0.00
2018-04-15T02:45:39.179Z,0.00
2018-04-15T02:46:39.139Z,0.00
2018-04-15T02:48:32.067Z,0.00
2018-04-15T02:49:32.025Z,0.00
2018-04-15T02:52:16.075Z,0.00
2018-04-15T02:53:16.039Z,0.00
2018-04-15T02:55:08.957Z,0.00
2018-04-15T02:56:08.951Z,0.00
2018-04-15T02:58:01.894Z,0.00
2018-04-15T02:59:01.865Z,0.00
2018-04-15T03:00:54.836Z,0.00
2018-04-15T03:01:54.807Z,0.00
2018-04-15T03:04:38.793Z,0.00
2018-04-15T03:05:38.771Z,0.00
2018-04-15T03:07:31.735Z,0.00
2018-04-15T03:08:31.730Z,0.00
2018-04-15T03:10:24.615Z,0.00
2018-04-15T03:11:24.588Z,0.00
2018-04-15T03:13:17.555Z,0.00
2018-04-15T03:14:17.529Z,0.00
2018-04-15T03:16:10.499Z,0.00
2018-04-15T03:17:10.468Z,0.00
2018-04-15T03:19:03.376Z,0.00
2018-04-15T03:20:03.349Z,0.00
2018-04-15T03:21:56.321Z,0.00
2018-04-15T03:22:56.292Z,0.00
2018-04-15T03:24:49.171Z,0.00
2018-04-15T03:25:49.171Z,0.00
2018-04-15T03:26:49.155Z,0.00
2018-04-15T03:27:49.141Z,0.00
2018-04-15T03:28:49.152Z,0.00
2018-04-15T03:29:49.128Z,0.00
2018-04-15T03:30:49.126Z,0.00
2018-04-15T03:31:49.229Z,0.00
2018-04-15T03:32:49.113Z,0.00
2018-04-15T03:33:49.103Z,0.00
2018-04-15T03:34:49.101Z,0.00
2018-04-15T03:35:49.107Z,0.00
2018-04-15T03:36:49.092Z,0.00
2018-04-15T03:37:49.076Z,0.00
2018-04-15T03:38:49.086Z,0.00
2018-04-15T03:39:49.061Z,0.00
2018-04-15T03:40:49.071Z,0.00
2018-04-15T03:41:49.048Z,0.00
2018-04-15T03:42:49.044Z,0.00
2018-04-15T03:43:49.044Z,0.00
2018-04-15T03:44:49.023Z,0.00
2018-04-15T03:45:49.025Z,0.00
2018-04-15T03:46:49.013Z,0.00
2018-04-15T03:47:49.013Z,0.00
2018-04-15T03:48:49.006Z,0.00
2018-04-15T03:49:48.999Z,0.00
2018-04-15T03:50:48.991Z,0.00
2018-04-15T03:51:49.007Z,0.00
2018-04-15T03:52:48.975Z,0.00
2018-04-15T03:53:48.980Z,0.00
2018-04-15T03:54:48.963Z,0.00
2018-04-15T03:55:48.955Z,0.00
2018-04-15T03:56:48.944Z,0.00
2018-04-15T03:57:48.962Z,0.00
2018-04-15T03:58:48.941Z,0.00
2018-04-15T03:59:48.947Z,0.00
2018-04-15T04:00:48.921Z,0.00
2018-04-15T04:01:48.918Z,0.00
2018-04-15T04:02:48.907Z,4.00
2018-04-15T04:03:48.903Z,4.00
2018-04-15T04:04:48.892Z,4.00
2018-04-15T04:05:48.888Z,0.00
2018-04-15T04:06:48.887Z,4.00
2018-04-15T04:07:48.875Z,8.00
2018-04-15T04:08:48.863Z,4.00
2018-04-15T04:09:48.857Z,8.00
2018-04-15T04:10:48.864Z,8.00
2018-04-15T04:11:48.865Z,12.00
2018-04-15T04:12:48.842Z,12.00
2018-04-15T04:13:48.834Z,16.00
2018-04-15T04:14:48.822Z,16.00
2018-04-15T04:15:48.821Z,20.00
2018-04-15T04:16:48.820Z,28.00
2018-04-15T04:17:48.807Z,28.00
2018-04-15T04:18:48.806Z,36.00
2018-04-15T04:19:48.797Z,40.00
2018-04-15T04:20:48.787Z,48.00
2018-04-15T04:21:48.775Z,56.00
2018-04-15T04:22:48.776Z,64.00
2018-04-15T04:23:48.767Z,76.00
2018-04-15T04:24:48.752Z,84.00
2018-04-15T04:25:48.748Z,96.00
2018-04-15T04:26:48.745Z,108.00
2018-04-15T04:27:48.758Z,120.00
2018-04-15T04:28:48.728Z,136.00
2018-04-15T04:29:48.709Z,152.00
2018-04-15T04:30:48.736Z,164.00
2018-04-15T04:31:48.710Z,184.00
2018-04-15T04:32:48.705Z,200.00
2018-04-15T04:33:48.689Z,220.00
2018-04-15T04:34:48.697Z,240.00
2018-04-15T04:35:48.692Z,256.00
2018-04-15T04:36:48.670Z,280.00
2018-04-15T04:37:48.668Z,304.00
2018-04-15T04:38:48.667Z,324.00
2018-04-15T04:39:48.642Z,352.00
2018-04-15T04:40:48.644Z,372.00
2018-04-15T04:41:48.632Z,400.00
2018-04-15T04:42:48.633Z,428.00
2018-04-15T04:43:48.617Z,456.00
2018-04-15T04:44:48.615Z,492.00
2018-04-15T04:45:48.602Z,532.00
2018-04-15T04:46:48.597Z,572.00
2018-04-15T04:47:48.597Z,620.00
2018-04-15T04:48:48.580Z,668.00
2018-04-15T04:49:48.575Z,728.00
2018-04-15T04:50:48.574Z,784.00
2018-04-15T04:51:48.575Z,844.00
2018-04-15T04:52:48.561Z,908.00
2018-04-15T04:53:48.566Z,972.00
2018-04-15T04:54:48.545Z,1044.00
2018-04-15T04:55:48.542Z,1116.00
2018-04-15T04:56:48.529Z,1196.00
2018-04-15T04:57:48.531Z,1272.00
2018-04-15T04:58:48.528Z,1356.00
2018-04-15T04:59:48.515Z,1444.00
2018-04-15T05:00:48.507Z,1528.00
2018-04-15T05:01:48.513Z,1620.00
2018-04-15T05:02:48.498Z,1720.00
2018-04-15T05:03:48.481Z,1820.00
2018-04-15T05:04:48.468Z,1920.00
2018-04-15T05:05:48.459Z,2016.00
2018-04-15T05:06:48.461Z,2104.00
2018-04-15T05:07:48.457Z,2192.00
2018-04-15T05:08:48.448Z,2276.00
2018-04-15T05:09:48.434Z,2360.00
2018-04-15T05:10:48.430Z,2440.00
2018-04-15T05:11:48.428Z,2508.00
2018-04-15T05:12:48.421Z,2568.00
2018-04-15T05:13:48.422Z,2628.00
2018-04-15T05:14:48.407Z,2680.00
2018-04-15T05:15:48.392Z,2724.00
2018-04-15T05:16:48.407Z,2764.00
2018-04-15T05:17:48.389Z,2788.00
2018-04-15T05:18:48.380Z,2808.00
2018-04-15T05:19:48.364Z,2824.00
2018-04-15T05:20:48.362Z,2844.00
2018-04-15T05:21:48.361Z,2860.00
2018-04-15T05:22:48.355Z,2860.00
2018-04-15T05:23:48.343Z,2868.00
2018-04-15T05:24:48.354Z,2884.00
2018-04-15T05:25:48.339Z,2912.00
2018-04-15T05:26:48.326Z,2932.00
2018-04-15T05:27:48.325Z,2972.00
2018-04-15T05:28:48.317Z,3040.00
2018-04-15T05:29:48.317Z,3136.00
2018-04-15T05:30:48.322Z,3260.00
2018-04-15T05:31:48.298Z,3408.00
2018-04-15T05:32:48.294Z,3568.00
2018-04-15T05:33:48.284Z,3740.00
2018-04-15T05:34:48.289Z,3912.00
2018-04-15T05:35:48.283Z,4096.00
2018-04-15T05:36:48.268Z,4296.00
2018-04-15T05:37:48.269Z,4472.00
2018-04-15T05:38:48.250Z,4600.00
2018-04-15T05:39:48.251Z,4696.00
2018-04-15T05:40:48.244Z,4804.00
2018-04-15T05:41:48.240Z,4880.00
2018-04-15T05:42:48.222Z,4936.00
2018-04-15T05:43:48.224Z,4972.00
2018-04-15T05:44:48.224Z,4996.00
2018-04-15T05:45:48.222Z,5056.00
2018-04-15T05:46:48.211Z,5132.00
2018-04-15T05:47:48.205Z,5244.00
2018-04-15T05:48:48.189Z,5416.00
2018-04-15T05:49:48.196Z,5604.00
2018-04-15T05:50:48.194Z,5788.00
2018-04-15T05:51:48.195Z,5968.00
2018-04-15T05:52:48.189Z,6156.00
2018-04-15T05:53:48.184Z,6340.00
2018-04-15T05:54:48.167Z,6516.00
2018-04-15T05:55:48.162Z,6660.00
2018-04-15T05:56:48.170Z,6776.00
2018-04-15T05:57:48.151Z,6880.00
2018-04-15T05:58:48.143Z,6996.00
2018-04-15T05:59:48.162Z,7108.00
2018-04-15T06:00:48.148Z,7216.00
2018-04-15T06:01:48.133Z,7348.00
2018-04-15T06:02:48.126Z,7504.00
2018-04-15T06:03:48.124Z,7680.00
2018-04-15T06:04:48.112Z,7856.00
2018-04-15T06:05:48.102Z,8016.00
2018-04-15T06:06:48.109Z,8156.00
2018-04-15T06:07:48.095Z,8276.00
2018-04-15T06:08:48.097Z,8388.00
2018-04-15T06:09:48.098Z,8472.00
2018-04-15T06:10:48.088Z,8544.00
2018-04-15T06:11:48.079Z,8616.00
2018-04-15T06:12:48.084Z,8708.00
2018-04-15T06:13:48.075Z,8776.00
2018-04-15T06:14:48.280Z,8840.00
2018-04-15T06:15:48.098Z,8928.00
2018-04-15T06:16:48.067Z,9028.00
2018-04-15T06:17:48.067Z,9176.00
2018-04-15T06:18:48.049Z,9376.00
2018-04-15T06:19:48.048Z,9552.00
2018-04-15T06:20:48.055Z,9680.00
2018-04-15T06:21:48.046Z,9816.00
2018-04-15T06:22:48.052Z,9932.00
2018-04-15T06:23:48.046Z,10040.00
2018-04-15T06:24:48.032Z,10152.00
2018-04-15T06:25:48.026Z,10336.00
2018-04-15T06:26:48.024Z,10620.00
2018-04-15T06:27:48.015Z,10908.00
2018-04-15T06:28:48.039Z,11124.00
2018-04-15T06:29:48.018Z,11220.00
2018-04-15T06:30:48.020Z,11244.00
2018-04-15T06:31:48.010Z,11224.00
2018-04-15T06:32:47.997Z,11228.00
2018-04-15T06:33:47.998Z,11288.00
2018-04-15T06:34:48.007Z,11356.00
2018-04-15T06:35:47.989Z,11352.00
2018-04-15T06:36:48.016Z,11264.00
2018-04-15T06:37:47.998Z,11108.00
2018-04-15T06:38:48.000Z,10940.00
2018-04-15T06:39:47.983Z,10816.00
2018-04-15T06:40:47.973Z,10720.00
2018-04-15T06:41:47.975Z,10684.00
2018-04-15T06:42:47.964Z,10812.00
2018-04-15T06:43:47.964Z,11080.00
2018-04-15T06:44:47.946Z,11348.00
2018-04-15T06:45:47.987Z,11520.00
2018-04-15T06:46:47.958Z,11664.00
2018-04-15T06:47:47.947Z,11840.00
2018-04-15T06:48:47.957Z,12064.00
2018-04-15T06:49:47.950Z,12284.00
2018-04-15T06:50:47.936Z,12420.00
2018-04-15T06:51:47.937Z,12452.00
2018-04-15T06:52:47.948Z,12372.00
2018-04-15T06:53:47.938Z,12200.00
2018-04-15T06:54:47.938Z,11940.00
2018-04-15T06:55:47.960Z,11672.00
2018-04-15T06:56:47.933Z,11420.00
2018-04-15T06:57:47.927Z,11204.00
2018-04-15T06:58:47.926Z,11008.00
2018-04-15T06:59:47.914Z,10884.00
2018-04-15T07:00:47.909Z,10792.00
2018-04-15T07:01:47.914Z,10736.00
2018-04-15T07:02:47.925Z,10848.00
2018-04-15T07:03:47.907Z,11052.00
2018-04-15T07:04:47.907Z,11296.00
2018-04-15T07:05:47.906Z,11640.00
2018-04-15T07:06:47.908Z,12136.00
2018-04-15T07:07:47.914Z,12616.00
2018-04-15T07:08:47.897Z,12960.00
2018-04-15T07:09:47.888Z,13172.00
2018-04-15T07:10:47.898Z,13240.00
2018-04-15T07:11:47.889Z,13212.00
2018-04-15T07:12:47.890Z,13160.00
2018-04-15T07:13:47.897Z,12988.00
2018-04-15T07:14:47.897Z,12692.00
2018-04-15T07:15:47.873Z,12360.00
2018-04-15T07:16:47.873Z,12108.00
2018-04-15T07:17:47.887Z,11976.00
2018-04-15T07:18:47.873Z,11984.00
2018-04-15T07:19:47.883Z,12148.00
2018-04-15T07:20:47.884Z,12456.00
2018-04-15T07:21:47.918Z,12832.00
2018-04-15T07:22:47.872Z,13212.00
2018-04-15T07:23:47.856Z,13624.00
2018-04-15T07:24:47.864Z,14068.00
2018-04-15T07:25:47.901Z,14572.00
2018-04-15T07:26:47.852Z,15020.00
2018-04-15T07:27:47.860Z,15488.00
2018-04-15T07:28:47.854Z,15908.00
2018-04-15T07:29:47.857Z,16332.00
2018-04-15T07:30:47.847Z,16928.00
2018-04-15T07:31:47.852Z,17344.00
2018-04-15T07:32:47.844Z,17600.00
2018-04-15T07:33:47.882Z,17696.00
2018-04-15T07:34:47.840Z,17632.00
2018-04-15T07:35:47.855Z,17568.00
2018-04-15T07:36:47.836Z,17504.00
2018-04-15T07:37:47.844Z,17696.00
2018-04-15T07:38:47.843Z,17536.00
2018-04-15T07:39:47.841Z,17536.00
2018-04-15T07:40:47.836Z,17536.00
2018-04-15T07:41:47.828Z,17632.00
2018-04-15T07:42:47.833Z,17792.00
2018-04-15T07:43:47.840Z,18080.00
2018-04-15T07:44:47.834Z,18528.00
2018-04-15T07:45:47.825Z,19584.00
2018-04-15T07:46:47.833Z,20416.00
2018-04-15T07:47:47.851Z,18464.00
2018-04-15T07:48:47.829Z,17696.00
2018-04-15T07:49:47.834Z,17024.00
2018-04-15T07:50:47.828Z,16420.00
2018-04-15T07:51:47.825Z,15868.00
2018-04-15T07:52:47.822Z,15364.00
2018-04-15T07:53:47.828Z,14912.00
2018-04-15T07:54:47.822Z,14496.00
2018-04-15T07:55:47.829Z,14060.00
2018-04-15T07:56:47.840Z,13680.00
2018-04-15T07:57:47.823Z,13380.00
2018-04-15T07:58:47.821Z,13256.00
2018-04-15T07:59:47.835Z,13304.00
2018-04-15T08:00:47.836Z,13500.00
2018-04-15T08:01:47.823Z,13828.00
2018-04-15T08:02:47.820Z,14260.00
2018-04-15T08:03:47.827Z,14736.00
2018-04-15T08:04:47.817Z,15180.00
2018-04-15T08:05:47.837Z,15544.00
2018-04-15T08:06:47.818Z,15756.00
2018-04-15T08:07:47.881Z,15784.00
2018-04-15T08:08:47.823Z,15692.00
2018-04-15T08:09:47.815Z,15512.00
2018-04-15T08:10:47.825Z,15268.00
2018-04-15T08:11:47.815Z,15068.00
2018-04-15T08:12:47.806Z,14872.00
2018-04-15T08:13:47.826Z,14712.00
2018-04-15T08:14:47.821Z,14584.00
2018-04-15T08:15:47.810Z,14500.00
2018-04-15T08:16:47.809Z,14464.00
2018-04-15T08:17:47.810Z,14452.00
2018-04-15T08:18:47.827Z,14468.00
2018-04-15T08:19:47.812Z,14536.00
2018-04-15T08:20:47.804Z,14668.00
2018-04-15T08:21:47.806Z,14860.00
2018-04-15T08:22:47.799Z,15136.00
2018-04-15T08:23:47.800Z,15424.00
2018-04-15T08:24:47.811Z,15632.00
2018-04-15T08:25:47.809Z,15848.00
2018-04-15T08:26:47.810Z,16012.00
2018-04-15T08:27:47.800Z,16152.00
2018-04-15T08:28:47.800Z,16116.00
2018-04-15T08:29:47.801Z,16188.00
2018-04-15T08:30:47.802Z,16264.00
2018-04-15T08:31:47.803Z,16320.00
2018-04-15T08:32:47.796Z,16376.00
2018-04-15T08:33:47.791Z,16420.00
2018-04-15T08:34:47.809Z,16488.00
2018-04-15T08:35:47.795Z,16672.00
2018-04-15T08:36:47.802Z,16704.00
2018-04-15T08:37:47.797Z,16736.00
2018-04-15T08:38:47.803Z,16832.00
2018-04-15T08:39:47.794Z,16896.00
2018-04-15T08:40:47.805Z,17056.00
2018-04-15T08:41:47.802Z,17344.00
2018-04-15T08:42:47.792Z,17664.00
2018-04-15T08:43:47.793Z,18048.00
2018-04-15T08:44:47.793Z,18368.00
2018-04-15T08:45:47.813Z,18464.00
2018-04-15T08:46:47.808Z,18592.00
2018-04-15T08:47:47.785Z,18624.00
2018-04-15T08:48:47.818Z,18880.00
2018-04-15T08:49:47.798Z,19072.00
2018-04-15T08:50:47.793Z,19360.00
2018-04-15T08:51:47.787Z,19776.00
2018-04-15T08:52:47.783Z,19712.00
2018-04-15T08:53:47.791Z,19616.00
2018-04-15T08:54:47.802Z,19744.00
2018-04-15T08:55:47.783Z,20096.00
2018-04-15T08:56:47.788Z,20416.00
2018-04-15T08:57:47.815Z,20832.00
2018-04-15T08:58:47.802Z,21120.00
2018-04-15T08:59:47.801Z,21504.00
2018-04-15T09:00:47.788Z,22080.00
2018-04-15T09:01:47.796Z,22528.00
2018-04-15T09:02:47.794Z,22752.00
2018-04-15T09:03:47.795Z,22912.00
2018-04-15T09:04:47.798Z,23456.00
2018-04-15T09:05:47.823Z,24064.00
2018-04-15T09:06:47.798Z,24672.00
2018-04-15T09:07:47.805Z,25504.00
2018-04-15T09:08:47.792Z,26336.00
2018-04-15T09:09:47.833Z,27072.00
2018-04-15T09:10:47.800Z,27552.00
2018-04-15T09:11:47.820Z,28384.00
2018-04-15T09:12:47.815Z,29632.00
2018-04-15T09:13:47.819Z,31200.00
2018-04-15T09:14:47.819Z,32032.00
2018-04-15T09:15:47.831Z,33760.00
2018-04-15T09:16:47.832Z,34304.00
2018-04-15T09:17:47.813Z,34368.00
2018-04-15T09:18:47.830Z,34432.00
2018-04-15T09:19:47.818Z,34144.00
2018-04-15T09:20:47.821Z,32928.00
2018-04-15T09:21:47.828Z,32672.00
2018-04-15T09:22:47.848Z,32000.00
2018-04-15T09:23:47.833Z,31168.00
2018-04-15T09:24:47.829Z,32000.00
2018-04-15T09:25:47.850Z,32448.00
2018-04-15T09:26:47.847Z,32800.00
2018-04-15T09:27:47.841Z,32288.00
2018-04-15T09:28:47.864Z,32672.00
2018-04-15T09:29:47.864Z,32256.00
2018-04-15T09:30:47.865Z,33472.00
2018-04-15T09:31:47.855Z,35200.00
2018-04-15T09:32:47.866Z,35808.00
2018-04-15T09:33:47.883Z,36672.00
2018-04-15T09:34:47.869Z,36160.00
2018-04-15T09:35:47.885Z,35424.00
2018-04-15T09:36:47.888Z,33920.00
2018-04-15T09:37:47.891Z,31936.00
2018-04-15T09:38:47.895Z,30112.00
2018-04-15T09:39:47.897Z,29312.00
2018-04-15T09:40:47.904Z,28768.00
2018-04-15T09:41:47.917Z,28448.00
2018-04-15T09:42:47.913Z,28704.00
2018-04-15T09:43:47.920Z,29056.00
2018-04-15T09:44:47.913Z,31392.00
2018-04-15T09:45:47.936Z,32672.00
2018-04-15T09:46:47.937Z,36032.00
2018-04-15T09:47:47.939Z,36416.00
2018-04-15T09:48:47.938Z,37600.00
2018-04-15T09:49:47.971Z,37280.00
2018-04-15T09:50:47.937Z,35456.00
2018-04-15T09:51:47.957Z,33696.00
2018-04-15T09:52:47.950Z,32960.00
2018-04-15T09:53:47.965Z,31200.00
2018-04-15T09:54:47.961Z,30752.00
2018-04-15T09:55:47.966Z,30304.00
2018-04-15T09:56:47.968Z,29760.00
2018-04-15T09:57:48.007Z,28640.00
2018-04-15T09:58:47.986Z,27744.00
2018-04-15T09:59:47.987Z,27488.00
2018-04-15T10:00:47.993Z,26944.00
2018-04-15T10:01:48.002Z,26528.00
2018-04-15T10:02:48.009Z,25920.00
2018-04-15T10:03:48.016Z,25152.00
2018-04-15T10:04:48.007Z,24960.00
2018-04-15T10:05:48.029Z,24832.00
2018-04-15T10:06:48.027Z,24544.00
2018-04-15T10:07:48.028Z,24320.00
2018-04-15T10:08:48.030Z,24192.00
2018-04-15T10:09:48.038Z,24128.00
2018-04-15T10:10:48.036Z,23840.00
2018-04-15T10:11:48.049Z,23520.00
2018-04-15T10:12:48.042Z,23232.00
2018-04-15T10:13:48.054Z,22816.00
2018-04-15T10:14:48.058Z,22400.00
2018-04-15T10:15:48.047Z,21952.00
2018-04-15T10:16:48.055Z,21536.00
2018-04-15T10:17:48.058Z,21280.00
2018-04-15T10:18:48.059Z,21280.00
2018-04-15T10:19:48.067Z,21600.00
2018-04-15T10:20:48.077Z,22080.00
2018-04-15T10:21:48.075Z,22624.00
2018-04-15T10:22:48.091Z,23200.00
2018-04-15T10:23:48.083Z,23584.00
2018-04-15T10:24:48.095Z,23744.00
2018-04-15T10:25:48.101Z,23680.00
2018-04-15T10:26:48.085Z,23488.00
2018-04-15T10:27:48.097Z,23264.00
2018-04-15T10:28:48.109Z,23040.00
2018-04-15T10:29:48.093Z,22848.00
2018-04-15T10:30:48.085Z,22784.00
2018-04-15T10:31:48.102Z,22624.00
2018-04-15T10:32:48.102Z,22528.00
2018-04-15T10:33:48.107Z,22656.00
2018-04-15T10:34:48.120Z,23744.00
2018-04-15T10:35:48.123Z,25312.00
2018-04-15T10:36:48.116Z,28416.00
2018-04-15T10:37:48.110Z,35744.00
2018-04-15T10:38:48.170Z,38688.00
2018-04-15T10:39:48.142Z,46624.00
2018-04-15T10:40:48.135Z,48128.00
2018-04-15T10:41:48.128Z,52864.00
2018-04-15T10:42:48.128Z,55680.00
2018-04-15T10:43:48.142Z,60288.00
2018-04-15T10:44:48.144Z,67328.00
2018-04-15T10:45:48.139Z,46464.00
2018-04-15T10:46:48.165Z,64352.00
2018-04-15T10:47:48.175Z,50144.00
2018-04-15T10:48:48.161Z,50528.00
2018-04-15T10:49:48.188Z,51584.00
2018-04-15T10:50:48.205Z,49408.00
2018-04-15T10:51:48.188Z,38432.00
2018-04-15T10:52:48.201Z,43232.00
2018-04-15T10:53:48.221Z,54496.00
2018-04-15T10:54:48.203Z,50816.00
2018-04-15T10:55:48.227Z,58880.00
2018-04-15T10:56:48.233Z,41376.00
2018-04-15T10:57:48.253Z,43648.00
2018-04-15T10:58:48.278Z,60704.00
2018-04-15T10:59:48.273Z,54688.00
2018-04-15T11:00:48.296Z,57920.00
2018-04-15T11:01:48.282Z,61536.00
2018-04-15T11:02:48.348Z,60800.00
2018-04-15T11:03:48.309Z,63360.00
2018-04-15T11:04:48.330Z,63136.00
2018-04-15T11:05:48.341Z,66688.00
2018-04-15T11:06:48.348Z,69216.00
2018-04-15T11:07:48.340Z,70016.00
2018-04-15T11:08:48.355Z,47456.00
2018-04-15T11:09:48.360Z,60448.00
2018-04-15T11:10:48.375Z,62880.00
2018-04-15T11:11:48.406Z,64608.00
2018-04-15T11:12:48.410Z,63520.00
2018-04-15T11:13:48.427Z,66272.00
2018-04-15T11:14:48.431Z,73024.00
2018-04-15T11:15:48.439Z,77120.00
2018-04-15T11:16:48.452Z,84032.00
2018-04-15T11:17:48.466Z,84032.00
2018-04-15T11:18:48.491Z,94368.00
2018-04-15T11:19:48.494Z,94560.00
2018-04-15T11:20:48.504Z,96256.00
2018-04-15T11:21:48.521Z,92064.00
2018-04-15T11:22:48.576Z,85376.00
2018-04-15T11:23:48.547Z,78528.00
2018-04-15T11:24:48.569Z,79008.00
2018-04-15T11:25:48.595Z,68928.00
2018-04-15T11:26:48.598Z,36160.00
2018-04-15T11:27:48.618Z,49760.00
2018-04-15T11:28:48.631Z,51648.00
2018-04-15T11:29:48.642Z,33248.00
2018-04-15T11:30:48.700Z,50592.00
2018-04-15T11:31:48.662Z,29760.00
2018-04-15T11:32:48.687Z,33856.00
2018-04-15T11:33:48.700Z,35136.00
2018-04-15T11:34:48.719Z,32544.00
2018-04-15T11:35:48.732Z,33280.00
2018-04-15T11:36:48.841Z,39488.00
2018-04-15T11:37:48.760Z,41344.00
2018-04-15T11:38:48.786Z,39072.00
2018-04-15T11:39:48.785Z,36576.00
2018-04-15T11:40:48.812Z,36160.00
2018-04-15T11:41:48.807Z,35200.00
2018-04-15T11:42:48.813Z,36544.00
2018-04-15T11:43:48.851Z,36672.00
2018-04-15T11:44:48.838Z,40160.00
2018-04-15T11:45:48.873Z,46400.00
2018-04-15T11:46:48.858Z,55008.00
2018-04-15T11:47:48.860Z,39872.00
2018-04-15T11:48:48.877Z,37152.00
2018-04-15T11:49:48.891Z,52864.00
2018-04-15T11:50:48.905Z,48736.00
2018-04-15T11:51:48.905Z,57344.00
2018-04-15T11:52:48.918Z,58560.00
2018-04-15T11:53:48.922Z,66016.00
2018-04-15T11:54:48.936Z,65184.00
2018-04-15T11:55:48.947Z,64480.00
2018-04-15T11:56:48.956Z,59200.00
2018-04-15T11:57:48.971Z,53056.00
2018-04-15T11:58:48.996Z,48288.00
2018-04-15T11:59:49.037Z,44960.00
2018-04-15T12:00:49.000Z,38688.00
2018-04-15T12:01:49.014Z,40000.00
2018-04-15T12:02:49.022Z,34944.00
2018-04-15T12:03:49.033Z,35136.00
2018-04-15T12:04:49.043Z,38368.00
2018-04-15T12:05:49.068Z,37536.00
2018-04-15T12:06:49.076Z,41856.00
2018-04-15T12:07:49.083Z,33952.00
2018-04-15T12:08:49.088Z,32480.00
2018-04-15T12:09:49.104Z,31200.00
2018-04-15T12:10:49.108Z,32512.00
2018-04-15T12:11:49.130Z,32096.00
2018-04-15T12:12:49.121Z,37984.00
2018-04-15T12:13:49.128Z,54272.00
2018-04-15T12:14:49.147Z,59584.00
2018-04-15T12:15:49.151Z,57152.00
2018-04-15T12:16:49.164Z,56992.00
2018-04-15T12:17:49.168Z,54848.00
2018-04-15T12:18:49.177Z,50048.00
2018-04-15T12:19:49.191Z,47360.00
2018-04-15T12:20:49.199Z,47168.00
2018-04-15T12:21:49.215Z,45440.00
2018-04-15T12:22:49.228Z,42784.00
2018-04-15T12:23:49.232Z,37248.00
2018-04-15T12:24:49.243Z,30528.00
2018-04-15T12:25:49.243Z,30080.00
2018-04-15T12:26:49.274Z,29664.00
2018-04-15T12:27:49.263Z,29792.00
2018-04-15T12:28:49.272Z,29504.00
2018-04-15T12:29:49.290Z,29440.00
2018-04-15T12:30:49.285Z,29440.00
2018-04-15T12:31:49.303Z,28960.00
2018-04-15T12:32:49.307Z,28544.00
2018-04-15T12:33:49.366Z,28160.00
2018-04-15T12:34:49.328Z,27904.00
2018-04-15T12:35:49.358Z,27488.00
2018-04-15T12:36:49.342Z,26656.00
2018-04-15T12:37:49.378Z,25664.00
2018-04-15T12:38:49.368Z,24672.00
2018-04-15T12:39:49.379Z,23936.00
2018-04-15T12:40:49.422Z,24032.00
2018-04-15T12:41:49.394Z,24480.00
2018-04-15T12:42:49.401Z,25216.00
2018-04-15T12:43:49.410Z,25824.00
2018-04-15T12:44:49.412Z,26464.00
2018-04-15T12:45:49.413Z,26720.00
2018-04-15T12:46:49.424Z,26912.00
2018-04-15T12:47:49.427Z,27040.00
2018-04-15T12:48:49.444Z,26624.00
2018-04-15T12:49:49.455Z,26144.00
2018-04-15T12:50:49.463Z,25632.00
2018-04-15T12:51:49.471Z,25088.00
2018-04-15T12:52:49.459Z,24704.00
2018-04-15T12:53:49.496Z,24000.00
2018-04-15T12:54:49.489Z,23104.00
2018-04-15T12:55:49.494Z,22368.00
2018-04-15T12:56:49.494Z,21792.00
2018-04-15T12:57:49.490Z,21216.00
2018-04-15T12:58:49.496Z,20800.00
2018-04-15T12:59:49.504Z,20576.00
2018-04-15T13:00:49.508Z,20416.00
2018-04-15T13:01:49.514Z,20320.00
2018-04-15T13:02:49.547Z,20288.00
2018-04-15T13:03:49.542Z,20288.00
2018-04-15T13:04:49.556Z,20352.00
2018-04-15T13:05:49.531Z,20480.00
2018-04-15T13:06:49.545Z,20544.00
2018-04-15T13:07:49.556Z,20384.00
2018-04-15T13:08:49.553Z,20256.00
2018-04-15T13:09:49.561Z,20224.00
2018-04-15T13:10:49.557Z,20160.00